createdAt,value
2022-11-20T00:02:15.785Z,68.89
2022-11-20T00:07:17.737Z,69.56
2022-11-20T00:12:19.639Z,69.49
2022-11-20T00:17:21.491Z,69.49
2022-11-20T00:22:23.466Z,70.66
2022-11-20T00:27:25.365Z,70.99
2022-11-20T00:32:27.239Z,70.39
2022-11-20T00:37:29.458Z,70.94
2022-11-20T00:42:33.797Z,71.73
2022-11-20T00:47:35.634Z,71.83
2022-11-20T00:52:37.589Z,71.92
2022-11-20T00:57:39.698Z,72.66
2022-11-20T01:02:41.566Z,72.22
2022-11-20T01:07:43.482Z,72.49
2022-11-20T01:13:05.227Z,72.95
2022-11-20T01:18:07.275Z,73.68
2022-11-20T01:23:09.225Z,74.06
2022-11-20T01:29:16.753Z,74.69
2022-11-20T01:34:20.482Z,74.71
2022-11-20T01:39:24.732Z,74.44
2022-11-20T01:51:43.826Z,76.14
2022-11-20T01:56:46.867Z,76.07
2022-11-20T02:01:48.827Z,75.41
2022-11-20T02:06:55.059Z,75.74
2022-11-20T02:11:57.480Z,75.62
2022-11-20T02:16:59.480Z,74.94
2022-11-20T02:22:07.098Z,74.85
2022-11-20T02:27:11.532Z,74.38
2022-11-20T02:32:31.377Z,73.97
2022-11-20T02:37:35.215Z,73.32
2022-11-20T02:42:37.913Z,72.85
2022-11-20T02:47:39.812Z,73.05
2022-11-20T02:52:41.839Z,72.96
2022-11-20T02:57:43.687Z,74.05
2022-11-20T03:02:45.646Z,73.62
2022-11-20T03:07:47.598Z,73.72
2022-11-20T03:12:54.186Z,73.94
2022-11-20T03:17:56.815Z,73.79
2022-11-20T03:22:58.724Z,73.92
2022-11-20T03:28:00.580Z,73.50
2022-11-20T03:33:02.417Z,73.39
2022-11-20T03:38:04.293Z,73.32
2022-11-20T03:43:06.296Z,72.90
2022-11-20T03:48:30.066Z,73.00
2022-11-20T03:53:31.922Z,73.01
2022-11-20T03:58:36.060Z,72.96
2022-11-20T04:03:39.132Z,72.79
2022-11-20T04:08:41.969Z,72.59
2022-11-20T04:13:48.366Z,73.04
2022-11-20T04:18:57.884Z,73.47
2022-11-20T04:23:59.879Z,74.33
2022-11-20T04:29:04.726Z,75.25
2022-11-20T04:34:08.265Z,74.98
2022-11-20T04:39:15.313Z,75.82
2022-11-20T04:44:17.299Z,76.69
2022-11-20T04:49:19.928Z,76.86
2022-11-20T05:01:46.479Z,78.97
2022-11-20T05:06:48.304Z,79.88
2022-11-20T05:11:51.643Z,79.94
2022-11-20T05:16:53.613Z,80.13
2022-11-20T05:21:55.504Z,80.40
2022-11-20T05:26:57.355Z,80.44
2022-11-20T05:31:59.247Z,80.79
2022-11-20T05:37:01.104Z,81.34
2022-11-20T05:42:21.649Z,82.72
2022-11-20T05:47:23.513Z,82.25
2022-11-20T05:59:49.205Z,81.93
2022-11-20T06:04:51.094Z,83.37
2022-11-20T06:09:52.971Z,83.46
2022-11-20T06:14:54.764Z,83.63
2022-11-20T06:19:56.596Z,83.78
2022-11-20T06:24:58.533Z,84.05
2022-11-20T06:37:24.667Z,84.16
2022-11-20T06:42:26.582Z,84.29
2022-11-20T06:47:28.449Z,84.24
2022-11-20T06:52:30.325Z,84.24
2022-11-20T06:57:32.283Z,84.25
2022-11-20T07:02:34.149Z,83.69
2022-11-20T07:07:36.177Z,83.85
2022-11-20T07:12:38.052Z,83.76
2022-11-20T07:17:39.972Z,83.41
2022-11-20T07:22:42.433Z,82.96
2022-11-20T07:27:44.217Z,83.01
2022-11-20T07:32:52.725Z,83.21
2022-11-20T07:37:54.691Z,83.22
2022-11-20T07:42:57.228Z,83.56
2022-11-20T07:47:59.204Z,83.20
2022-11-20T07:53:07.342Z,83.29
2022-11-20T07:58:09.210Z,83.38
2022-11-20T08:03:11.147Z,83.26
2022-11-20T08:08:13.301Z,83.13
2022-11-20T08:13:33.352Z,83.54
2022-11-20T08:18:35.193Z,83.76
2022-11-20T08:23:37.047Z,83.29
2022-11-20T08:28:38.972Z,83.32
2022-11-20T08:33:41.228Z,83.20
2022-11-20T08:38:43.668Z,82.81
2022-11-20T08:43:45.597Z,82.14
2022-11-20T08:48:47.425Z,82.07
2022-11-20T08:54:34.929Z,81.74
2022-11-20T09:00:04.330Z,81.41
2022-11-20T09:04:58.666Z,79.45
2022-11-20T09:11:08.542Z,76.44
2022-11-20T09:16:10.508Z,68.52
2022-11-20T09:21:14.887Z,64.04
2022-11-20T09:26:16.904Z,61.37
2022-11-20T09:31:27.044Z,59.17
2022-11-20T09:36:28.864Z,59.19
2022-11-20T09:41:50.989Z,57.84
2022-11-20T09:46:58.538Z,56.43
2022-11-20T09:52:02.682Z,56.44
2022-11-20T09:57:08.476Z,55.06
2022-11-20T10:02:43.288Z,54.22
2022-11-20T10:14:43.714Z,59.96
2022-11-20T10:26:58.660Z,63.79
2022-11-20T10:32:14.464Z,64.42
2022-11-20T10:37:19.869Z,64.47
2022-11-20T10:42:40.419Z,61.08
2022-11-20T10:47:42.384Z,63.01
2022-11-20T10:53:13.317Z,65.61
2022-11-20T10:58:21.206Z,67.23
2022-11-20T11:03:29.005Z,68.29
2022-11-20T11:08:37.715Z,67.23
2022-11-20T11:13:39.516Z,68.00
2022-11-20T11:18:43.200Z,68.73
2022-11-20T11:23:45.080Z,69.01
2022-11-20T11:29:04.671Z,67.76
2022-11-20T11:41:21.803Z,67.49
2022-11-20T11:46:23.686Z,67.06
2022-11-20T11:51:43.310Z,67.79
2022-11-20T11:56:46.248Z,67.95
2022-11-20T12:02:16.522Z,66.96
2022-11-20T12:07:47.405Z,67.94
2022-11-20T12:12:53.687Z,68.21
2022-11-20T12:17:55.758Z,68.45
2022-11-20T12:23:06.110Z,69.10
2022-11-20T12:28:16.990Z,69.61
2022-11-20T12:33:22.002Z,67.97
2022-11-20T12:39:01.040Z,68.01
2022-11-20T12:44:44.273Z,68.57
2022-11-20T12:49:56.588Z,68.25
2022-11-20T12:55:02.427Z,68.06
2022-11-20T13:00:15.533Z,67.44
2022-11-20T13:05:21.191Z,66.88
2022-11-20T13:10:45.005Z,67.43
2022-11-20T13:15:55.440Z,66.71
2022-11-20T13:20:57.138Z,66.81
2022-11-20T13:26:17.670Z,66.45
2022-11-20T13:31:32.106Z,66.12
2022-11-20T13:36:36.151Z,65.14
2022-11-20T13:41:40.603Z,66.49
2022-11-20T13:46:44.935Z,66.39
2022-11-20T13:51:49.085Z,67.41
2022-11-20T13:57:17.875Z,66.51
2022-11-20T14:02:21.497Z,65.92
2022-11-20T14:07:27.077Z,65.82
2022-11-20T14:12:31.257Z,65.97
2022-11-20T14:17:36.070Z,66.35
2022-11-20T14:22:38.022Z,64.62
2022-11-20T14:27:43.856Z,65.56
2022-11-20T14:32:46.830Z,65.56
2022-11-20T14:37:48.808Z,64.34
2022-11-20T14:42:54.813Z,64.28
2022-11-20T14:47:57.981Z,64.84
2022-11-20T14:53:02.738Z,64.29
2022-11-20T14:58:22.618Z,64.41
2022-11-20T15:03:29.184Z,64.30
2022-11-20T15:08:33.748Z,64.29
2022-11-20T15:13:39.724Z,63.73
2022-11-20T15:18:45.069Z,63.27
2022-11-20T15:23:47.072Z,62.59
2022-11-20T15:28:51.270Z,63.22
2022-11-20T15:33:53.392Z,63.89
2022-11-20T15:38:55.187Z,62.43
2022-11-20T15:43:56.971Z,63.87
2022-11-20T15:49:00.820Z,63.24
2022-11-20T15:54:06.858Z,63.35
2022-11-20T15:59:08.798Z,62.26
2022-11-20T16:04:15.568Z,63.38
2022-11-20T16:09:17.365Z,63.94
2022-11-20T16:14:38.048Z,65.59
2022-11-20T16:19:40.269Z,67.55
2022-11-20T16:24:42.323Z,68.90
2022-11-20T16:29:44.312Z,69.13
2022-11-20T16:34:46.295Z,70.75
2022-11-20T16:39:48.174Z,70.16
2022-11-20T16:44:49.992Z,71.77
2022-11-20T16:49:51.771Z,72.25
2022-11-20T16:54:53.595Z,72.55
2022-11-20T17:00:01.756Z,72.73
2022-11-20T17:05:04.292Z,73.82
2022-11-20T17:10:06.474Z,74.54
2022-11-20T17:15:08.551Z,75.21
2022-11-20T17:20:12.389Z,76.22
2022-11-20T17:25:14.291Z,76.84
2022-11-20T17:30:16.401Z,77.12
2022-11-20T17:35:18.352Z,77.38
2022-11-20T17:40:25.908Z,77.80
2022-11-20T17:45:29.109Z,78.52
2022-11-20T17:50:30.911Z,78.39
2022-11-20T17:55:55.657Z,78.80
2022-11-20T18:01:05.667Z,79.62
2022-11-20T18:06:22.468Z,80.14
2022-11-20T18:11:26.662Z,80.29
2022-11-20T18:16:30.230Z,80.68
2022-11-20T18:21:32.532Z,81.15
2022-11-20T18:26:34.583Z,81.16
2022-11-20T18:31:37.406Z,81.31
2022-11-20T18:36:39.304Z,81.41
2022-11-20T18:42:19.985Z,81.38
2022-11-20T18:47:28.595Z,81.66
2022-11-20T18:52:33.919Z,81.47
2022-11-20T18:57:36.104Z,81.96
2022-11-20T19:02:42.311Z,81.78
2022-11-20T19:07:45.055Z,82.50
2022-11-20T19:12:46.851Z,82.53
2022-11-20T19:17:48.717Z,82.59
2022-11-20T19:22:51.212Z,83.48
2022-11-20T19:27:53.256Z,84.25
2022-11-20T19:32:55.248Z,84.66
2022-11-20T19:38:00.232Z,84.92
2022-11-20T19:43:05.939Z,85.24
2022-11-20T19:48:08.471Z,85.78
2022-11-20T19:53:11.751Z,86.23
2022-11-20T19:58:13.801Z,86.54
2022-11-20T20:03:15.666Z,86.95
2022-11-20T20:08:17.585Z,87.33
2022-11-20T20:13:19.513Z,87.69
2022-11-20T20:18:21.399Z,88.11
2022-11-20T20:23:23.227Z,88.47
2022-11-20T20:28:25.200Z,88.90
2022-11-20T20:33:27.097Z,89.65
2022-11-20T20:38:28.986Z,89.72
2022-11-20T20:43:31.605Z,89.98
2022-11-20T20:56:02.614Z,90.59
2022-11-20T21:01:09.779Z,90.75
2022-11-20T21:06:12.245Z,90.71
2022-11-20T21:11:16.308Z,91.09
2022-11-20T21:16:20.692Z,90.90
2022-11-20T21:21:41.134Z,90.83
2022-11-20T21:26:43.076Z,90.92
2022-11-20T21:31:45.064Z,91.24
2022-11-20T21:36:47.273Z,92.01
2022-11-20T21:42:53.427Z,92.85
2022-11-20T21:47:55.269Z,93.19
2022-11-20T21:52:57.150Z,93.49
2022-11-20T21:57:59.133Z,94.09
2022-11-20T22:03:01.010Z,93.90
2022-11-20T22:08:02.946Z,94.59
2022-11-20T22:13:23.556Z,95.04
2022-11-20T22:18:25.384Z,94.68
2022-11-20T22:23:27.167Z,95.14
2022-11-20T22:28:29.006Z,94.90
2022-11-20T22:33:31.990Z,94.94
2022-11-20T22:38:39.125Z,95.01
2022-11-20T22:43:42.354Z,95.46
2022-11-20T22:48:55.528Z,95.30
2022-11-20T22:53:57.887Z,95.43
2022-11-20T22:58:59.990Z,95.35
2022-11-20T23:04:04.621Z,95.15
2022-11-20T23:09:07.181Z,95.20
2022-11-20T23:14:13.758Z,95.19
2022-11-20T23:19:15.952Z,95.28
2022-11-20T23:24:17.781Z,95.12
2022-11-20T23:29:19.698Z,94.83
2022-11-20T23:34:21.604Z,95.23
2022-11-20T23:39:23.546Z,94.74
2022-11-20T23:44:25.923Z,94.96
2022-11-20T23:49:28.093Z,95.33
2022-11-20T23:54:29.922Z,95.56
2022-11-20T23:59:31.744Z,95.34
